Flight Track Log - Related Links

Times and Time Zones

All times are in EST time to prevent confusion due to time zone crossing. See the ASQ4500 flight status page for this flight to view local times or setup timezone preferences in your user account.

Time Position Orientation Groundspeed Altitude Reporting Facility
EST Latitude Longitude Course Direction KTS MPH feet Rate Location/Type
Fri 10:53:40 AM 29.9644 -95.3483 128° Southeast 167 192 500  Level Houston Center
Fri 10:54:35 AM 29.9342 -95.3042 124° Southeast 207 238 2,300 1,862 Climbing Houston Center
Fri 10:55:36 AM 29.8942 -95.2356 121° Southeast 266 306 4,100 2,277 Climbing Houston Center
Fri 10:56:52 AM 29.8467 -95.1431 163° South 287 330 7,500 2,691 Climbing Houston Center
Fri 10:57:52 AM 29.7722 -95.1164 193° South 270 311 10,200 1,900 Climbing Houston Center
Fri 10:58:52 AM 29.6903 -95.1378 206° Southwest 264 304 11,300 1,300 Climbing Houston Center
Fri 10:59:52 AM 29.6011 -95.1872 203° Southwest 291 335 12,800 1,750 Climbing Houston Center
Fri 11:00:52 AM 29.4997 -95.2364 205° Southwest 356 410 14,800 2,000 Climbing Houston Center
Fri 11:01:52 AM 29.4108 -95.2833 217° Southwest 358 412 16,800 1,950 Climbing Houston Center
Fri 11:02:52 AM 29.3361 -95.3475 216° Southwest 344 396 18,700 1,700 Climbing Houston Center
Fri 11:03:52 AM 29.2592 -95.4114 217° Southwest 350 403 20,200 1,400 Climbing Houston Center
Fri 11:04:52 AM 29.1842 -95.4753 216° Southwest 350 403 21,500 900 Climbing Houston Center
Fri 11:05:52 AM 29.1008 -95.5436 217° Southwest 355 409 22,000 250 Climbing Houston Center
Fri 11:06:52 AM 29.0194 -95.6142 217° Southwest 372 428 22,000  Level Houston Center
Fri 11:07:52 AM 28.9361 -95.6847 216° Southwest 379 436 22,000  Level Houston Center
Fri 11:08:52 AM 28.8525 -95.7550 215° Southwest 374 430 22,000  Level Houston Center
Fri 11:09:52 AM 28.7669 -95.8228 217° Southwest 374 430 22,000  Level Houston Center
Fri 11:10:52 AM 28.6811 -95.8975 216° Southwest 380 437 22,000  Level Houston Center
Fri 11:11:52 AM 28.5956 -95.9675 216° Southwest 380 437 22,000  Level Houston Center
Fri 11:12:52 AM 28.5097 -96.0397 217° Southwest 380 437 22,000  Level Houston Center
Fri 11:13:52 AM 28.4258 -96.1117 216° Southwest 380 437 22,000  Level Houston Center
Fri 11:14:52 AM 28.3400 -96.1814 215° Southwest 380 437 22,000  Level Houston Center
Fri 11:15:52 AM 28.2542 -96.2508 216° Southwest 385 443 22,000  Level Houston Center
Fri 11:16:52 AM 28.1706 -96.3203 216° Southwest 385 443 22,000  Level Houston Center
Fri 11:17:52 AM 28.0825 -96.3919 215° Southwest 385 443 22,000  Level Houston Center
Fri 11:18:52 AM 27.9986 -96.4589 217° Southwest 385 443 22,000  Level Houston Center
Fri 11:19:52 AM 27.9147 -96.5303 216° Southwest 385 443 22,000  Level Houston Center
Fri 11:20:52 AM 27.8308 -96.5994 215° Southwest 385 443 22,000  Level Houston Center
Fri 11:21:52 AM 27.7450 -96.6681 215° Southwest 385 443 22,000  Level Houston Center
Fri 11:22:52 AM 27.6589 -96.7369 219° Southwest 385 443 22,000  Level Houston Center
Fri 11:23:52 AM 27.5725 -96.8147 214° Southwest 390 449 22,000  Level Houston Center
Fri 11:24:52 AM 27.4844 -96.8808 208° Southwest 390 449 22,000  Level Houston Center
Fri 11:25:52 AM 27.3989 -96.9331 209° Southwest 390 449 22,000  Level Houston Center
Fri 11:26:52 AM 27.3025 -96.9939 209° Southwest 401 461 22,000  Level Houston Center
Fri 11:27:52 AM 27.2086 -97.0522 209° Southwest 401 461 22,000 -150 Level Houston Center
Fri 11:28:52 AM 27.1144 -97.1108 208° Southwest 401 461 21,700 -950 Descending Houston Center
Fri 11:29:52 AM 27.0181 -97.1689 210° Southwest 401 461 20,100 -2,000 Descending Houston Center
Fri 11:30:52 AM 26.9239 -97.2294 208° Southwest 401 461 17,700 -2,050 Descending Houston Center
Fri 11:31:52 AM 26.8297 -97.2853 214° Southwest 376 433 16,000 -1,500 Descending Houston Center
Fri 11:32:52 AM 26.7567 -97.3397 218° Southwest 357 411 14,700 -1,900 Descending Houston Center
Fri 11:33:52 AM 26.6786 -97.4078 220° Southwest 335 386 12,200 -1,900 Descending Houston Center
Fri 11:34:52 AM 26.6200 -97.4628 221° Southwest 309 356 10,900 -1,550 Descending Houston Center
Fri 11:35:52 AM 26.5569 -97.5244 218° Southwest 286 329 9,100 -1,750 Descending Houston Center
Fri 11:36:52 AM 26.5047 -97.5706 219° Southwest 271 312 7,400 -1,800 Descending Houston Center
Fri 11:37:52 AM 26.4439 -97.6253 211° Southwest 265 305 5,500 -1,450 Descending Houston Center
Fri 11:38:52 AM 26.3903 -97.6617 211° Southwest 252 290 4,500 -1,000 Descending Houston Center

Login

Don't have an account? Register now (free) for customized features, flight alerts, and more!